Aviation Digital Data Service (ADDS)

Output produced by TAFs form (0037 UTC 25 October 2014)
found at http://aviationweather.gov/adds/tafs/
 
KEGE 242320Z 2500/2524 25010KT P6SM SKC 
     FM250100 08004KT P6SM SKC 
     FM251900 24005KT P6SM SKC 
     FM252000 25010G18KT P6SM SKC AMD LTD TO CLD VIS AND WIND 2501/2513